Time;durP1;ratioP1;P1;durP2;ratioP2;P2;SDS_P1;SDS_P2;PMS_P1;PMS_P2;Temp;Humidity;BMP_temperature;BMP_pressure;BME280_temperature;BME280_humidity;BME280_pressure;Samples;Min_cycle;Max_cycle;Signal;HPM_P1;HPM_P2
2023/04/11 00:00:43;;;;;;;2.80;2.60;;;;;;;13.09;48.15;95435.28;6194327;23;20154;-87
2023/04/11 00:03:31;;;;;;;2.50;2.30;;;;;;;13.09;48.46;95427.50;6194209;23;20216;-88
2023/04/11 00:06:01;;;;;;;2.70;2.50;;;;;;;13.12;48.25;95415.00;6195064;23;20723;-90
2023/04/11 00:08:43;;;;;;;2.60;2.40;;;;;;;13.12;48.47;95416.78;6195196;23;20170;-90
2023/04/11 00:14:04;;;;;;;2.47;2.27;;;;;;;13.08;48.08;95397.53;6183637;23;20280;-87
2023/04/11 00:16:42;;;;;;;2.57;2.37;;;;;;;13.08;47.96;95403.47;6195201;23;20185;-87
2023/04/11 00:19:29;;;;;;;2.27;2.07;;;;;;;13.07;47.96;95395.94;6194029;23;20174;-87
2023/04/11 00:22:11;;;;;;;2.50;2.30;;;;;;;13.11;47.91;95391.94;6193454;23;20174;-88
2023/04/11 00:24:51;;;;;;;2.50;2.30;;;;;;;13.09;47.90;95396.50;6194569;23;20568;-90
2023/04/11 00:30:48;;;;;;;2.03;1.93;;;;;;;13.13;47.74;95395.91;6193144;23;20178;-89
2023/04/11 00:33:22;;;;;;;2.47;2.10;;;;;;;13.20;47.79;95387.41;6166856;23;20234;-88
2023/04/11 00:36:21;;;;;;;2.87;1.97;;;;;;;13.17;47.95;95386.00;6193868;23;20170;-90
2023/04/11 00:39:04;;;;;;;2.30;2.10;;;;;;;13.16;47.71;95378.47;6194296;23;20181;-88
2023/04/11 00:41:43;;;;;;;2.40;2.20;;;;;;;13.17;47.97;95370.50;6195275;23;20222;-88
2023/04/11 00:47:05;;;;;;;2.30;2.10;;;;;;;13.26;47.88;95364.16;6188764;23;20189;-88
2023/04/11 00:49:51;;;;;;;2.30;2.10;;;;;;;13.29;47.81;95347.44;6194571;23;20228;-87
2023/04/11 00:52:48;;;;;;;;;;;;;;;;;;;;;
2023/04/11 00:55:28;;;;;;;2.37;2.17;;;;;;;13.27;47.99;95341.69;6194522;23;20170;-87
2023/04/11 00:58:06;;;;;;;2.53;1.90;;;;;;;13.23;47.74;95340.50;6193961;23;20162;-87
2023/04/11 01:03:16;;;;;;;2.47;2.27;;;;;;;13.28;47.92;95332.91;6189654;23;20201;-88
2023/04/11 01:05:53;;;;;;;2.20;2.00;;;;;;;13.34;47.98;95343.25;6192776;23;20170;-88
2023/04/11 01:08:24;;;;;;;2.43;2.23;;;;;;;13.38;48.17;95352.22;6192903;23;20685;-88
2023/04/11 01:10:51;;;;;;;2.30;2.10;;;;;;;13.37;48.23;95348.03;6193554;23;20214;-88
2023/04/11 01:13:20;;;;;;;2.40;1.97;;;;;;;13.37;48.15;95340.28;6193016;23;20202;-88
2023/04/11 01:15:52;;;;;;;2.00;1.90;;;;;;;13.38;48.18;95352.22;6192728;23;20268;-88
2023/04/11 01:18:25;;;;;;;2.00;1.90;;;;;;;13.34;48.40;95358.78;6192810;23;20178;-87
2023/04/11 01:21:04;;;;;;;1.97;1.87;;;;;;;13.34;48.31;95355.41;6193996;23;20162;-88
2023/04/11 01:23:39;;;;;;;2.30;1.97;;;;;;;13.34;48.77;95353.59;6193559;23;20514;-88
2023/04/11 01:26:12;;;;;;;2.50;2.17;;;;;;;13.36;48.76;95340.47;6194433;23;20178;-88
2023/04/11 01:28:49;;;;;;;2.40;2.20;;;;;;;13.38;48.79;95328.94;6193442;23;20158;-89
2023/04/11 01:31:23;;;;;;;2.00;1.90;;;;;;;13.39;48.76;95335.72;6193377;23;20188;-88
2023/04/11 01:33:58;;;;;;;2.43;2.23;;;;;;;13.43;49.05;95316.22;6194996;23;20248;-90
2023/04/11 01:36:35;;;;;;;2.20;2.00;;;;;;;13.47;48.83;95311.41;6195845;23;20213;-90
2023/04/11 01:39:14;;;;;;;2.40;2.20;;;;;;;13.47;49.16;95319.19;6195230;23;20161;-87
2023/04/11 01:42:04;;;;;;;2.25;2.05;;;;;;;13.46;49.12;95326.16;6194508;23;20209;-88
2023/04/11 01:44:46;;;;;;;2.30;2.10;;;;;;;13.46;49.13;95304.69;6195023;23;20320;-90
2023/04/11 01:47:22;;;;;;;2.33;2.13;;;;;;;13.49;49.33;95299.88;6195703;23;20181;-90
2023/04/11 01:49:54;;;;;;;2.40;2.20;;;;;;;13.49;50.02;95296.50;6196344;23;20158;-90
2023/04/11 01:52:39;;;;;;;2.40;2.20;;;;;;;13.46;50.62;95307.28;6196008;23;20178;-89
2023/04/11 01:55:15;;;;;;;2.70;2.30;;;;;;;13.38;50.54;95304.88;6196894;23;20169;-90
2023/04/11 01:58:07;;;;;;;2.10;1.90;;;;;;;13.32;50.77;95311.63;6196506;23;20162;-90
2023/04/11 02:00:44;;;;;;;2.03;1.93;;;;;;;13.37;50.36;95298.91;6196082;23;20166;-91
2023/04/11 02:03:10;;;;;;;1.90;1.80;;;;;;;13.41;49.82;95286.38;6194688;23;20297;-88
2023/04/11 02:05:50;;;;;;;1.73;1.63;;;;;;;13.40;48.63;95271.84;6195078;23;20259;-88
2023/04/11 02:08:30;;;;;;;3.57;1.60;;;;;;;13.51;48.63;95263.47;6195019;23;20197;-88
2023/04/11 02:11:03;;;;;;;3.03;1.80;;;;;;;13.57;48.07;95259.28;6195058;23;20233;-89
2023/04/11 02:13:35;;;;;;;1.60;1.50;;;;;;;13.62;47.77;95249.94;6195259;23;20273;-88
2023/04/11 02:16:30;;;;;;;2.03;1.67;;;;;;;13.64;47.49;95255.69;6195533;23;20660;-88
2023/04/11 02:19:22;;;;;;;1.63;1.53;;;;;;;13.68;47.33;95243.13;6195642;23;20166;-88
2023/04/11 02:22:00;;;;;;;3.27;1.53;;;;;;;13.74;47.19;95237.16;6187364;23;20174;-87
2023/04/11 02:24:30;;;;;;;2.05;1.50;;;;;;;13.78;46.72;95244.31;6193832;23;20194;-88
2023/04/11 02:27:04;;;;;;;1.90;1.80;;;;;;;13.81;46.17;95241.31;6195065;23;20576;-87
2023/04/11 02:29:31;;;;;;;1.60;1.37;;;;;;;13.81;45.96;95236.13;6194811;23;20171;-87
2023/04/11 02:32:01;;;;;;;1.70;1.60;;;;;;;13.81;45.92;95230.16;6196141;23;20205;-87
2023/04/11 02:34:28;;;;;;;1.52;1.42;;;;;;;13.80;45.70;95234.53;6196310;23;20202;-89
2023/04/11 02:36:59;;;;;;;2.05;1.60;;;;;;;13.82;45.42;95224.00;6195120;23;20209;-87
2023/04/11 02:39:35;;;;;;;1.87;1.40;;;;;;;13.79;44.87;95217.44;6194923;23;20214;-87
2023/04/11 02:42:15;;;;;;;1.48;1.38;;;;;;;13.81;45.06;95206.88;6195353;23;20182;-89
2023/04/11 02:44:53;;;;;;;2.63;1.67;;;;;;;13.85;44.85;95205.47;6193994;23;20194;-88
2023/04/11 02:47:29;;;;;;;2.35;1.40;;;;;;;13.87;44.63;95208.63;6194064;23;20154;-88
2023/04/11 02:50:04;;;;;;;2.42;1.50;;;;;;;13.82;44.65;95204.09;6194901;23;20162;-87
2023/04/11 02:52:46;;;;;;;1.63;1.30;;;;;;;13.88;44.50;95209.41;6195673;23;20158;-86
2023/04/11 02:55:35;;;;;;;;;;;;;;;;;;;;;
2023/04/11 02:58:16;;;;;;;1.50;1.40;;;;;;;13.91;44.51;95207.22;6194833;23;20190;-88
2023/04/11 03:01:06;;;;;;;2.15;1.55;;;;;;;13.85;44.25;95202.09;6194633;23;20221;-88
2023/04/11 03:03:39;;;;;;;1.50;1.38;;;;;;;13.86;44.11;95201.06;6194413;23;20225;-89
2023/04/11 03:06:08;;;;;;;1.58;1.48;;;;;;;13.86;44.05;95196.69;6195108;23;20166;-89
2023/04/11 03:08:53;;;;;;;;;;;;;;;;;;;;;
2023/04/11 03:11:21;;;;;;;1.40;1.30;;;;;;;13.82;43.92;95198.13;6194039;23;20194;-87
2023/04/11 03:13:49;;;;;;;1.43;1.30;;;;;;;13.85;43.89;95194.31;6192785;23;20253;-87
2023/04/11 03:16:15;;;;;;;1.77;1.35;;;;;;;13.81;43.34;95192.16;6193428;23;20189;-88
2023/04/11 03:18:42;;;;;;;2.55;1.40;;;;;;;13.81;43.39;95194.72;6192193;23;20200;-87
2023/04/11 03:21:11;;;;;;;2.55;1.50;;;;;;;13.81;43.51;95189.56;6193232;23;20205;-88
2023/04/11 03:23:37;;;;;;;1.75;1.45;;;;;;;13.86;43.20;95186.34;6191919;23;20197;-88
2023/04/11 03:26:05;;;;;;;3.20;1.33;;;;;;;13.95;43.55;95179.94;6192509;23;20185;-89
2023/04/11 03:28:31;;;;;;;1.30;1.20;;;;;;;13.98;43.17;95181.31;6190840;23;20185;-87
2023/04/11 03:31:02;;;;;;;1.80;1.23;;;;;;;13.97;42.92;95183.09;6184534;23;20180;-87
2023/04/11 03:33:31;;;;;;;2.60;1.50;;;;;;;14.01;43.20;95184.28;6184172;23;20210;-87
2023/04/11 03:35:57;;;;;;;1.33;1.23;;;;;;;14.01;42.79;95183.50;6192320;23;20184;-89
2023/04/11 03:38:25;;;;;;;2.33;1.38;;;;;;;13.98;42.77;95179.53;6193449;23;20175;-89
2023/04/11 03:40:51;;;;;;;1.60;1.30;;;;;;;13.99;42.82;95183.69;6193026;23;20178;-88
2023/04/11 03:43:19;;;;;;;2.13;1.35;;;;;;;14.00;42.81;95164.59;6193240;23;20198;-87
2023/04/11 03:45:50;;;;;;;1.67;1.27;;;;;;;14.01;42.89;95173.13;6192764;23;20178;-87
2023/04/11 03:48:18;;;;;;;1.30;1.20;;;;;;;14.04;43.11;95172.72;6192213;23;20176;-87
2023/04/11 03:50:44;;;;;;;2.67;1.50;;;;;;;14.03;42.86;95171.13;6192496;23;20240;-88
2023/04/11 03:53:14;;;;;;;2.20;1.30;;;;;;;13.99;43.10;95168.16;6192457;23;20190;-89
2023/04/11 03:55:56;;;;;;;2.72;1.23;;;;;;;14.04;42.82;95163.16;6189152;23;20695;-87
2023/04/11 03:58:35;;;;;;;1.30;1.20;;;;;;;13.98;42.24;95164.00;6186239;23;20159;-88
2023/04/11 04:01:23;;;;;;;2.20;1.08;;;;;;;13.99;42.79;95151.84;6187213;23;20174;-87
2023/04/11 04:07:52;;;;;;;2.85;1.25;;;;;;;13.94;42.64;95142.09;6161701;23;20170;-86
2023/04/11 04:13:46;;;;;;;2.20;1.20;;;;;;;13.95;42.86;95137.72;6185921;23;20205;-86
2023/04/11 04:19:21;;;;;;;;;;;;;;;;;;;;;
2023/04/11 04:25:45;;;;;;;;;;;;;;;;;;;;;
2023/04/11 04:28:48;;;;;;;1.50;1.33;;;;;;;13.98;42.46;95138.09;6181566;23;20174;-86
2023/04/11 04:45:16;;;;;;;2.28;1.38;;;;;;;13.89;45.18;95192.88;6129995;23;20254;-87
2023/04/11 04:48:38;;;;;;;1.30;1.20;;;;;;;13.74;47.34;95175.06;6142155;23;20714;-87
2023/04/11 04:58:00;;;;;;;1.40;1.30;;;;;;;13.64;47.85;95174.72;6190217;23;20173;-88
2023/04/11 05:07:03;;;;;;;3.20;1.50;;;;;;;13.67;49.84;95185.41;6183235;23;20178;-87
2023/04/11 05:09:52;;;;;;;1.50;1.40;;;;;;;13.71;50.27;95183.22;6185143;23;20177;-87
2023/04/11 05:12:52;;;;;;;;;;;;;;;;;;;;;
2023/04/11 05:15:39;;;;;;;3.40;1.50;;;;;;;13.70;51.22;95202.31;6183157;23;20653;-88
2023/04/11 05:18:28;;;;;;;2.80;1.67;;;;;;;13.52;54.33;95195.22;6186702;23;20178;-87
2023/04/11 05:21:15;;;;;;;3.57;1.70;;;;;;;13.48;55.77;95201.78;6188576;23;20170;-86
2023/04/11 05:23:58;;;;;;;2.08;1.50;;;;;;;13.41;56.72;95201.84;6188217;23;20205;-87
2023/04/11 05:26:55;;;;;;;1.67;1.57;;;;;;;13.35;57.17;95196.66;6187010;23;20259;-87
2023/04/11 05:29:53;;;;;;;4.20;1.70;;;;;;;13.30;57.34;95192.09;6093848;23;20256;-87
2023/04/11 05:32:31;;;;;;;1.63;1.53;;;;;;;13.33;57.25;95193.50;6188525;23;20221;-88
2023/04/11 05:35:16;;;;;;;1.77;1.50;;;;;;;13.21;56.39;95188.16;6188978;23;20197;-87
2023/04/11 05:44:43;;;;;;;2.53;1.87;;;;;;;13.31;56.68;95200.66;6180265;23;20232;-88
2023/04/11 05:47:33;;;;;;;1.40;1.30;;;;;;;13.26;57.32;95209.03;6189240;23;20232;-88
2023/04/11 05:53:13;;;;;;;2.13;1.30;;;;;;;13.00;59.53;95211.63;6184754;23;20231;-87
2023/04/11 05:58:47;;;;;;;2.60;1.50;;;;;;;12.93;61.47;95193.53;6185805;23;20684;-87
2023/04/11 06:01:41;;;;;;;1.57;1.47;;;;;;;12.97;61.94;95207.63;6186802;23;20193;-88
2023/04/11 06:04:12;;;;;;;2.17;1.40;;;;;;;13.02;62.23;95225.13;6186673;23;20195;-86
2023/04/11 06:07:04;;;;;;;;;;;;;;;;;;;;;
2023/04/11 06:09:33;;;;;;;1.90;1.50;;;;;;;12.94;63.43;95222.75;6187638;23;20170;-85
2023/04/11 06:12:06;;;;;;;1.50;1.40;;;;;;;12.96;64.09;95233.69;6188454;23;20283;-85
2023/04/11 06:15:26;;;;;;;;;;;;;;;;;;;;;
2023/04/11 06:17:59;;;;;;;1.67;1.30;;;;;;;12.85;65.06;95226.53;6180767;23;20280;-86
2023/04/11 06:20:33;;;;;;;2.00;1.40;;;;;;;12.92;65.34;95228.09;6190778;23;20180;-86
2023/04/11 06:23:04;;;;;;;1.60;1.50;;;;;;;12.89;65.41;95223.38;6188980;23;20193;-86
2023/04/11 06:25:42;;;;;;;1.77;1.37;;;;;;;12.91;65.24;95241.22;6193997;23;20258;-86
2023/04/11 06:28:16;;;;;;;2.53;1.50;;;;;;;12.83;66.28;95246.59;6193401;23;20178;-86
2023/04/11 06:30:48;;;;;;;2.03;1.67;;;;;;;12.79;65.89;95244.41;6193121;23;20582;-86
2023/04/11 06:33:22;;;;;;;1.90;1.40;;;;;;;12.79;66.32;95259.91;6192598;23;20194;-87
2023/04/11 06:35:50;;;;;;;1.63;1.47;;;;;;;12.83;66.29;95262.91;6194031;23;20186;-86
2023/04/11 06:38:20;;;;;;;3.43;3.13;;;;;;;12.86;66.35;95262.50;6191604;23;20260;-87
2023/04/11 06:40:57;;;;;;;1.83;1.73;;;;;;;12.96;66.36;95257.72;6189584;23;20490;-87
2023/04/11 06:43:35;;;;;;;1.83;1.50;;;;;;;12.93;67.43;95258.13;6190785;23;20197;-86
2023/04/11 06:46:19;;;;;;;1.70;1.60;;;;;;;12.84;69.50;95264.50;6193071;23;20159;-86
2023/04/11 06:49:00;;;;;;;1.63;1.47;;;;;;;12.68;72.78;95265.69;6191995;23;20213;-87
2023/04/11 06:51:40;;;;;;;;;;;;;;;;;;;;;
2023/04/11 06:54:10;;;;;;;1.60;1.50;;;;;;;12.69;73.45;95264.69;6194056;23;20221;-87
2023/04/11 06:56:37;;;;;;;2.77;1.50;;;;;;;12.68;75.33;95277.81;6193208;23;20245;-87
2023/04/11 06:59:11;;;;;;;1.50;1.40;;;;;;;12.68;75.94;95268.25;6193558;23;20236;-86
2023/04/11 07:01:47;;;;;;;1.70;1.60;;;;;;;12.71;76.00;95267.06;6188483;23;20161;-86
2023/04/11 07:04:20;;;;;;;1.53;1.43;;;;;;;12.73;76.12;95271.03;6188286;23;20268;-85
2023/04/11 07:07:00;;;;;;;1.60;1.30;;;;;;;12.60;77.45;95272.81;6190486;23;20165;-86
2023/04/11 07:09:36;;;;;;;1.33;1.23;;;;;;;12.60;78.13;95272.81;6191432;23;20178;-86
2023/04/11 07:12:16;;;;;;;1.87;1.30;;;;;;;12.50;79.36;95280.16;6190642;23;20203;-87
2023/04/11 07:14:51;;;;;;;1.40;1.20;;;;;;;12.29;81.30;95278.50;6191696;23;20209;-86
2023/04/11 07:17:20;;;;;;;1.10;1.00;;;;;;;12.20;81.57;95305.47;6191743;23;20242;-86
2023/04/11 07:20:00;;;;;;;3.17;1.20;;;;;;;12.07;82.89;95298.47;6192325;23;20178;-86
2023/04/11 07:22:32;;;;;;;1.10;1.00;;;;;;;11.91;83.66;95299.59;6193395;23;20172;-87
2023/04/11 07:25:02;;;;;;;1.40;1.00;;;;;;;11.90;84.22;95292.06;6190361;23;20278;-86
2023/04/11 07:27:28;;;;;;;2.07;1.77;;;;;;;11.76;86.07;95294.56;6186496;23;20232;-87
2023/04/11 07:29:55;;;;;;;4.50;3.43;;;;;;;11.84;86.62;95306.50;6188628;23;20178;-84
2023/04/11 07:32:28;;;;;;;3.47;1.40;;;;;;;11.77;88.33;95310.81;6191031;23;20178;-86
2023/04/11 07:34:58;;;;;;;1.27;0.97;;;;;;;11.78;89.74;95312.41;6189893;23;20198;-85
2023/04/11 07:37:26;;;;;;;1.60;1.00;;;;;;;11.77;90.24;95321.94;6189894;23;20166;-85
2023/04/11 07:39:53;;;;;;;1.40;1.00;;;;;;;11.68;92.49;95330.00;6190655;23;20182;-85
2023/04/11 07:42:19;;;;;;;1.10;0.90;;;;;;;11.63;89.26;95343.44;6191379;23;20178;-84
2023/04/11 07:44:46;;;;;;;1.17;0.83;;;;;;;11.51;89.72;95339.81;6192644;23;20743;-86
2023/04/11 07:47:32;;;;;;;1.07;1.00;;;;;;;11.48;91.01;95336.81;6192594;23;20249;-86
2023/04/11 07:50:07;;;;;;;0.90;0.90;;;;;;;11.53;90.23;95352.53;6191371;23;20506;-87
2023/04/11 07:52:40;;;;;;;1.50;0.80;;;;;;;11.50;89.82;95365.78;6192065;23;20161;-85
2023/04/11 07:55:17;;;;;;;1.53;0.90;;;;;;;11.60;90.28;95353.34;6192740;23;20182;-85
2023/04/11 07:57:43;;;;;;;1.80;0.90;;;;;;;11.69;89.98;95359.97;6188345;23;20345;-88
2023/04/11 08:00:21;;;;;;;1.00;0.90;;;;;;;11.75;89.98;95360.00;6190401;23;20586;-86
2023/04/11 08:02:48;;;;;;;1.37;1.00;;;;;;;11.86;88.61;95360.50;6190157;23;20641;-85
2023/04/11 08:05:18;;;;;;;1.80;0.87;;;;;;;11.80;87.47;95371.56;6188804;23;20258;-85
2023/04/11 08:07:47;;;;;;;1.53;1.00;;;;;;;11.71;88.18;95373.47;6188643;23;20162;-86
2023/04/11 08:10:14;;;;;;;10.47;8.80;;;;;;;11.67;88.69;95378.19;6190548;23;20253;-86
2023/04/11 08:15:45;;;;;;;1.23;0.93;;;;;;;11.55;84.52;95389.19;6185475;23;20197;-86
2023/04/11 08:18:12;;;;;;;1.53;0.80;;;;;;;11.47;82.49;95397.88;6190350;23;20162;-88
2023/04/11 08:20:40;;;;;;;1.00;0.70;;;;;;;11.51;82.84;95406.03;6192363;23;20174;-86
2023/04/11 08:23:09;;;;;;;1.90;1.23;;;;;;;11.40;81.66;95402.97;6191546;23;20194;-86
2023/04/11 08:25:38;;;;;;;0.70;0.60;;;;;;;11.37;79.82;95405.13;6192093;23;20174;-87
2023/04/11 08:28:08;;;;;;;1.63;0.70;;;;;;;11.32;79.35;95416.00;6191741;23;20174;-86
2023/04/11 08:30:35;;;;;;;0.83;0.80;;;;;;;11.34;79.04;95418.41;6190863;23;20185;-86
2023/04/11 08:33:01;;;;;;;2.90;0.80;;;;;;;11.32;79.01;95420.38;6192273;23;20218;-88
2023/04/11 08:35:28;;;;;;;0.70;0.70;;;;;;;11.28;80.41;95413.97;6193315;23;20242;-87
2023/04/11 08:37:56;;;;;;;0.73;0.70;;;;;;;11.30;80.85;95405.09;6191652;23;20230;-86
2023/04/11 08:40:28;;;;;;;0.97;0.80;;;;;;;11.36;79.05;95406.09;6192537;23;20185;-86
2023/04/11 08:42:58;;;;;;;0.60;0.60;;;;;;;11.30;78.29;95420.56;6191800;23;20170;-86
2023/04/11 08:45:25;;;;;;;0.93;0.70;;;;;;;11.38;77.45;95419.59;6193120;23;20181;-86
2023/04/11 08:47:54;;;;;;;0.87;0.70;;;;;;;11.40;74.17;95421.03;6192267;23;20185;-85
2023/04/11 08:50:21;;;;;;;0.80;0.70;;;;;;;11.43;73.61;95418.06;6193394;23;20189;-87
2023/04/11 08:52:57;;;;;;;11.87;8.83;;;;;;;11.39;73.74;95408.31;6193873;23;20238;-88
2023/04/11 08:55:25;;;;;;;0.83;0.83;;;;;;;11.38;73.58;95407.50;6193656;23;20237;-87
2023/04/11 08:57:57;;;;;;;1.27;0.90;;;;;;;11.42;71.95;95418.25;6192519;23;20178;-85
2023/04/11 09:00:27;;;;;;;2.30;0.80;;;;;;;11.31;72.53;95419.56;6192498;23;20170;-87
2023/04/11 09:02:58;;;;;;;1.70;0.70;;;;;;;11.36;71.37;95409.47;6192316;23;20177;-87
2023/04/11 09:05:26;;;;;;;0.57;0.57;;;;;;;11.37;71.88;95418.81;6192946;23;20162;-86
2023/04/11 09:10:49;;;;;;;1.00;0.70;;;;;;;11.41;69.96;95435.50;6190433;23;20201;-86
2023/04/11 09:13:21;;;;;;;1.53;0.80;;;;;;;11.40;70.31;95440.84;6191433;23;20205;-85
2023/04/11 09:16:40;;;;;;;0.60;0.60;;;;;;;11.23;71.24;95432.56;6188207;23;20482;-85
2023/04/11 09:19:34;;;;;;;1.27;0.87;;;;;;;11.33;69.72;95442.59;6186573;23;20174;-86
2023/04/11 09:22:03;;;;;;;2.07;0.97;;;;;;;11.32;69.26;95441.78;6186557;23;20162;-86
2023/04/11 09:24:30;;;;;;;0.77;0.77;;;;;;;11.33;66.81;95440.81;6187477;23;20198;-85
2023/04/11 09:27:25;;;;;;;1.43;1.00;;;;;;;11.36;67.32;95442.19;6187556;23;20174;-86
2023/04/11 09:29:54;;;;;;;1.37;0.70;;;;;;;11.34;66.10;95442.41;6160267;23;20238;-88
2023/04/11 09:32:35;;;;;;;1.37;0.80;;;;;;;11.42;66.18;95446.63;6192155;23;20178;-86
2023/04/11 09:35:10;;;;;;;0.70;0.60;;;;;;;11.32;64.98;95451.28;6192784;23;20197;-87
2023/04/11 09:37:47;;;;;;;1.17;1.00;;;;;;;11.26;65.68;95460.56;6191754;23;20631;-86
2023/04/11 09:40:15;;;;;;;1.77;0.97;;;;;;;11.30;63.87;95466.16;6191816;23;20173;-86
2023/04/11 09:42:43;;;;;;;2.47;1.20;;;;;;;11.24;63.11;95459.94;6192026;23;20224;-88
2023/04/11 09:45:17;;;;;;;1.40;0.80;;;;;;;11.23;63.35;95468.66;6192917;23;20170;-87
2023/04/11 09:47:44;;;;;;;7.00;5.77;;;;;;;11.33;63.64;95469.16;6191494;23;20178;-86
2023/04/11 09:50:11;;;;;;;3.40;2.53;;;;;;;11.50;63.21;95474.88;6191301;23;20559;-86
2023/04/11 09:52:39;;;;;;;1.20;1.03;;;;;;;11.64;62.91;95475.75;6191423;23;20209;-86
2023/04/11 09:55:11;;;;;;;2.50;0.90;;;;;;;11.66;63.83;95474.59;6194580;23;20175;-85
2023/04/11 09:57:40;;;;;;;1.07;0.70;;;;;;;11.53;63.87;95461.59;6195341;23;20166;-87
2023/04/11 10:00:15;;;;;;;0.70;0.70;;;;;;;11.60;63.65;95479.69;6195474;23;20174;-86
2023/04/11 10:02:42;;;;;;;1.23;0.90;;;;;;;11.54;64.98;95473.50;6192636;23;20222;-85
2023/04/11 10:05:10;;;;;;;1.97;0.90;;;;;;;11.64;65.33;95483.50;6191979;23;20177;-86
2023/04/11 10:07:48;;;;;;;2.73;0.97;;;;;;;11.54;64.94;95485.63;6191683;23;20182;-87
2023/04/11 10:10:19;;;;;;;1.17;1.00;;;;;;;11.58;63.36;95494.56;6192075;23;20170;-86
2023/04/11 10:13:01;;;;;;;1.87;1.00;;;;;;;11.65;62.24;95496.22;6191632;23;20225;-86
2023/04/11 10:15:29;;;;;;;2.00;1.20;;;;;;;11.57;61.63;95482.63;6193625;23;20194;-86
2023/04/11 10:18:08;;;;;;;1.87;1.03;;;;;;;11.59;60.90;95485.84;6193063;23;20174;-85
2023/04/11 10:20:46;;;;;;;2.27;1.10;;;;;;;11.64;60.76;95489.47;6193244;23;20174;-88
2023/04/11 10:23:13;;;;;;;1.93;1.10;;;;;;;11.68;60.93;95484.75;6191670;23;20202;-85
2023/04/11 10:25:55;;;;;;;11.43;8.80;;;;;;;11.71;60.40;95489.53;6194401;23;20194;-85
2023/04/11 10:28:32;;;;;;;2.73;1.27;;;;;;;11.61;59.40;95476.13;6192674;23;20163;-85
2023/04/11 10:31:02;;;;;;;1.53;1.00;;;;;;;11.55;59.67;95477.66;6192383;23;20178;-86
2023/04/11 10:33:29;;;;;;;1.60;0.90;;;;;;;11.54;61.07;95475.28;6193523;23;20621;-87
2023/04/11 10:35:57;;;;;;;2.20;0.90;;;;;;;11.63;60.03;95469.81;6192906;23;20201;-86
2023/04/11 10:38:46;;;;;;;2.10;1.00;;;;;;;11.66;59.71;95482.34;6191703;23;20181;-87
2023/04/11 10:41:31;;;;;;;3.70;1.33;;;;;;;11.63;59.01;95493.03;6190950;23;20178;-85
2023/04/11 10:44:16;;;;;;;1.87;1.00;;;;;;;11.71;58.96;95487.75;6192913;23;20256;-86
2023/04/11 10:46:53;;;;;;;2.47;1.10;;;;;;;11.67;60.14;95498.63;6191963;23;20166;-85
2023/04/11 10:49:37;;;;;;;1.83;0.90;;;;;;;11.79;59.27;95493.78;6190590;23;20174;-86
2023/04/11 10:52:16;;;;;;;2.40;1.00;;;;;;;11.78;58.43;95495.56;6189881;23;20193;-87
2023/04/11 10:54:43;;;;;;;2.70;1.10;;;;;;;11.84;59.32;95507.72;6188727;23;20198;-88
2023/04/11 10:57:10;;;;;;;1.20;0.90;;;;;;;11.82;61.61;95514.03;6190756;23;20194;-87
2023/04/11 10:59:59;;;;;;;1.60;0.90;;;;;;;11.90;62.84;95509.56;6184531;23;20178;-87
2023/04/11 11:02:41;;;;;;;1.33;0.80;;;;;;;11.70;61.39;95511.16;6179487;23;20174;-86
2023/04/11 11:05:19;;;;;;;5.17;3.17;;;;;;;11.63;60.28;95520.59;6189408;23;20166;-85
2023/04/11 11:07:50;;;;;;;2.37;2.00;;;;;;;11.63;59.50;95523.97;6190206;23;20206;-88
2023/04/11 11:10:40;;;;;;;2.53;1.00;;;;;;;11.73;58.14;95505.63;6190122;23;20162;-88
2023/04/11 11:13:43;;;;;;;2.23;1.10;;;;;;;12.05;57.83;95496.56;6187119;23;20518;-88
2023/04/11 11:16:31;;;;;;;2.67;1.07;;;;;;;12.60;56.52;95497.50;6185984;23;20229;-86
2023/04/11 11:19:25;;;;;;;1.10;0.93;;;;;;;12.75;55.34;95500.75;6187834;23;20169;-86
2023/04/11 11:22:16;;;;;;;1.63;1.00;;;;;;;12.73;56.21;95497.56;6180479;23;20174;-86
2023/04/11 11:25:13;;;;;;;;;;;;;;;;;;;;;
2023/04/11 11:31:46;;;;;;;2.20;1.23;;;;;;;12.19;56.04;95508.56;6184008;23;20224;-87
2023/04/11 11:34:57;;;;;;;2.23;1.17;;;;;;;11.98;56.43;95517.16;6184702;23;20692;-86
2023/04/11 11:37:38;;;;;;;1.13;1.00;;;;;;;12.15;56.19;95527.19;6164198;23;20256;-87
2023/04/11 11:40:11;;;;;;;1.37;0.97;;;;;;;12.19;56.09;95518.91;6191803;23;20193;-88
2023/04/11 11:42:53;;;;;;;1.67;1.00;;;;;;;12.13;56.17;95522.22;6192208;23;20162;-87
2023/04/11 11:46:00;;;;;;;;;;;;;;;;;;;;;
2023/04/11 11:48:53;;;;;;;1.83;1.10;;;;;;;12.25;57.09;95525.91;6184831;23;20202;-88
2023/04/11 11:51:54;;;;;;;4.00;1.20;;;;;;;12.31;56.46;95526.94;6173940;23;20174;-86
2023/04/11 11:54:51;;;;;;;1.90;1.20;;;;;;;12.36;56.71;95530.53;6193491;23;20206;-86
2023/04/11 11:57:35;;;;;;;1.23;1.03;;;;;;;12.37;56.59;95533.91;6185460;23;20205;-87
2023/04/11 12:00:40;;;;;;;6.33;4.73;;;;;;;12.43;56.30;95536.56;6192393;23;20237;-87
2023/04/11 12:06:02;;;;;;;2.47;1.10;;;;;;;12.66;56.02;95535.50;6190947;23;20174;-86
2023/04/11 12:08:40;;;;;;;1.57;1.00;;;;;;;12.56;55.01;95543.56;6190348;23;20246;-86
2023/04/11 12:11:21;;;;;;;1.93;1.03;;;;;;;12.50;54.92;95535.81;6187004;23;20163;-86
2023/04/11 12:13:58;;;;;;;1.77;1.30;;;;;;;12.60;55.64;95529.31;6186503;23;20248;-86
2023/04/11 12:19:34;;;;;;;4.60;1.30;;;;;;;12.98;53.46;95514.19;6101389;23;20176;-86
2023/04/11 12:25:07;;;;;;;3.00;1.40;;;;;;;13.24;50.44;95507.56;6175562;23;20198;-86
2023/04/11 12:28:00;;;;;;;2.57;1.30;;;;;;;13.46;49.58;95511.59;6187438;23;20525;-86
2023/04/11 12:37:09;;;;;;;1.90;1.20;;;;;;;14.38;47.05;95510.81;6015549;23;20205;-87
2023/04/11 12:39:45;;;;;;;1.83;1.42;;;;;;;14.28;47.07;95518.19;6064286;23;20256;-86
2023/04/11 12:50:26;;;;;;;1.70;1.30;;;;;;;13.66;47.59;95516.81;6179559;23;20231;-88
2023/04/11 12:53:16;;;;;;;;;;;;;;;;;;;;;
2023/04/11 12:58:43;;;;;;;2.30;1.27;;;;;;;13.68;48.35;95514.78;6182069;23;20672;-86
2023/04/11 13:01:42;;;;;;;4.53;1.17;;;;;;;13.92;48.28;95516.81;6185576;23;20234;-86
2023/04/11 13:04:22;;;;;;;3.40;1.30;;;;;;;14.02;45.97;95511.25;6190032;23;20194;-86
2023/04/11 13:07:03;;;;;;;3.17;1.52;;;;;;;14.02;46.93;95506.06;6185871;23;20719;-86
2023/04/11 13:10:03;;;;;;;;;;;;;;;;;;;;;
2023/04/11 13:18:37;;;;;;;2.10;1.20;;;;;;;13.72;48.13;95503.84;6183637;23;20194;-87
2023/04/11 13:21:32;;;;;;;3.17;1.40;;;;;;;13.75;47.89;95502.66;6185493;23;20181;-86
2023/04/11 13:24:21;;;;;;;4.53;1.20;;;;;;;13.79;47.68;95515.03;6184761;23;20816;-87
2023/04/11 13:26:59;;;;;;;3.47;1.37;;;;;;;13.81;47.22;95499.28;6183998;23;20205;-87
2023/04/11 13:29:27;;;;;;;3.05;1.10;;;;;;;13.72;48.01;95496.09;6186815;23;20180;-86
2023/04/11 13:32:05;;;;;;;2.43;1.27;;;;;;;13.79;47.16;95498.69;6185424;23;20205;-87
2023/04/11 13:34:50;;;;;;;2.07;1.27;;;;;;;13.76;47.12;95493.91;6187529;23;20256;-86
2023/04/11 13:37:32;;;;;;;1.73;1.10;;;;;;;13.75;47.38;95500.06;6185960;23;20237;-87
2023/04/11 13:40:32;;;;;;;4.23;1.53;;;;;;;13.92;47.31;95490.94;6186457;23;20193;-86
2023/04/11 13:43:27;;;;;;;2.30;1.17;;;;;;;13.81;46.82;95473.41;6189203;23;20678;-86
2023/04/11 13:46:08;;;;;;;2.20;1.20;;;;;;;13.78;46.75;95481.56;6096294;23;20511;-86
2023/04/11 13:48:51;;;;;;;2.30;1.27;;;;;;;13.77;46.80;95469.63;6186317;23;20663;-86
2023/04/11 13:51:41;;;;;;;2.73;1.30;;;;;;;13.52;47.35;95476.38;6187008;23;20237;-86
2023/04/11 13:54:28;;;;;;;2.20;1.20;;;;;;;13.66;47.83;95476.16;6185057;23;20197;-86
2023/04/11 14:06:36;;;;;;;;;;;;;;;;;;;;;
2023/04/11 14:09:41;;;;;;;3.13;1.60;;;;;;;13.41;52.21;95465.63;6184048;23;20171;-89
2023/04/11 14:15:33;;;;;;;3.13;1.50;;;;;;;13.46;52.59;95473.59;6175127;23;20238;-87
2023/04/11 14:21:12;;;;;;;2.13;1.48;;;;;;;13.57;52.68;95469.63;6191158;23;20246;-87
2023/04/11 14:24:09;;;;;;;4.13;1.55;;;;;;;13.61;53.10;95472.59;6193022;23;20746;-86
2023/04/11 14:29:41;;;;;;;2.87;1.30;;;;;;;13.36;53.49;95472.38;6158709;23;20181;-86
2023/04/11 14:32:24;;;;;;;2.37;1.30;;;;;;;13.34;53.78;95469.19;6190473;23;20174;-87
2023/04/11 14:34:59;;;;;;;3.63;1.43;;;;;;;13.37;54.96;95474.75;6193103;23;20198;-87
2023/04/11 14:37:36;;;;;;;1.93;1.03;;;;;;;13.28;56.20;95478.50;6193145;23;20190;-86
2023/04/11 14:40:09;;;;;;;1.10;1.00;;;;;;;13.19;56.79;95477.09;6192703;23;20246;-86
2023/04/11 14:42:49;;;;;;;1.50;1.40;;;;;;;13.24;57.08;95472.16;6192372;23;20201;-90
2023/04/11 14:45:31;;;;;;;2.23;1.37;;;;;;;13.08;58.23;95475.84;6190397;23;20614;-90
2023/04/11 14:48:02;;;;;;;1.93;1.20;;;;;;;12.92;58.03;95475.38;6190384;23;20159;-90